sensor_id;sensor_type;location;lat;lon;timestamp;P1;durP1;ratioP1;P2;durP2;ratioP2
65982;SDS011;52740;40.620;-8.640;2022-11-06T00:01:18;39.13;;;22.67;;
65982;SDS011;52740;40.620;-8.640;2022-11-06T00:03:19;49.78;;;22.20;;
65982;SDS011;52740;40.620;-8.640;2022-11-06T00:05:20;43.45;;;23.52;;
65982;SDS011;52740;40.620;-8.640;2022-11-06T00:07:39;41.42;;;22.58;;
65982;SDS011;52740;40.620;-8.640;2022-11-06T00:09:39;41.42;;;23.15;;
65982;SDS011;52740;40.620;-8.640;2022-11-06T00:11:40;46.88;;;24.70;;
65982;SDS011;52740;40.620;-8.640;2022-11-06T00:13:41;55.92;;;24.85;;
65982;SDS011;52740;40.620;-8.640;2022-11-06T00:15:43;49.80;;;26.60;;
65982;SDS011;52740;40.620;-8.640;2022-11-06T00:17:44;45.92;;;27.60;;
65982;SDS011;52740;40.620;-8.640;2022-11-06T00:21:49;51.78;;;24.85;;
65982;SDS011;52740;40.620;-8.640;2022-11-06T00:23:49;54.03;;;28.08;;
65982;SDS011;52740;40.620;-8.640;2022-11-06T00:25:51;51.60;;;25.95;;
65982;SDS011;52740;40.620;-8.640;2022-11-06T00:27:55;51.45;;;27.63;;
65982;SDS011;52740;40.620;-8.640;2022-11-06T00:29:56;55.30;;;28.20;;
65982;SDS011;52740;40.620;-8.640;2022-11-06T00:31:57;59.58;;;27.20;;
65982;SDS011;52740;40.620;-8.640;2022-11-06T00:33:58;52.03;;;27.60;;
65982;SDS011;52740;40.620;-8.640;2022-11-06T00:36:03;55.78;;;27.23;;
65982;SDS011;52740;40.620;-8.640;2022-11-06T00:38:06;54.90;;;25.30;;
65982;SDS011;52740;40.620;-8.640;2022-11-06T00:40:07;53.33;;;25.75;;
65982;SDS011;52740;40.620;-8.640;2022-11-06T00:42:08;44.67;;;24.70;;
65982;SDS011;52740;40.620;-8.640;2022-11-06T00:44:09;49.35;;;24.08;;
65982;SDS011;52740;40.620;-8.640;2022-11-06T00:46:10;38.15;;;22.80;;
65982;SDS011;52740;40.620;-8.640;2022-11-06T00:48:13;43.65;;;21.67;;
65982;SDS011;52740;40.620;-8.640;2022-11-06T00:50:21;37.35;;;19.60;;
65982;SDS011;52740;40.620;-8.640;2022-11-06T00:52:26;37.40;;;19.88;;
65982;SDS011;52740;40.620;-8.640;2022-11-06T00:54:28;36.33;;;19.85;;
65982;SDS011;52740;40.620;-8.640;2022-11-06T00:56:30;42.90;;;20.48;;
65982;SDS011;52740;40.620;-8.640;2022-11-06T00:58:31;33.67;;;20.25;;
65982;SDS011;52740;40.620;-8.640;2022-11-06T01:00:32;30.25;;;18.70;;
65982;SDS011;52740;40.620;-8.640;2022-11-06T01:02:32;40.95;;;19.13;;
65982;SDS011;52740;40.620;-8.640;2022-11-06T01:04:33;35.67;;;18.88;;
65982;SDS011;52740;40.620;-8.640;2022-11-06T01:06:35;30.08;;;18.35;;
65982;SDS011;52740;40.620;-8.640;2022-11-06T01:08:38;26.75;;;16.35;;
65982;SDS011;52740;40.620;-8.640;2022-11-06T01:10:39;30.75;;;18.33;;
65982;SDS011;52740;40.620;-8.640;2022-11-06T01:12:40;30.85;;;18.25;;
65982;SDS011;52740;40.620;-8.640;2022-11-06T01:14:41;32.08;;;18.13;;
65982;SDS011;52740;40.620;-8.640;2022-11-06T01:16:42;33.80;;;19.05;;
65982;SDS011;52740;40.620;-8.640;2022-11-06T01:18:43;32.63;;;17.42;;
65982;SDS011;52740;40.620;-8.640;2022-11-06T01:20:44;33.95;;;19.15;;
65982;SDS011;52740;40.620;-8.640;2022-11-06T01:22:45;32.20;;;19.40;;
65982;SDS011;52740;40.620;-8.640;2022-11-06T01:24:46;28.17;;;18.17;;
65982;SDS011;52740;40.620;-8.640;2022-11-06T01:26:47;39.45;;;19.65;;
65982;SDS011;52740;40.620;-8.640;2022-11-06T01:28:48;34.15;;;18.13;;
65982;SDS011;52740;40.620;-8.640;2022-11-06T01:30:49;38.22;;;19.60;;
65982;SDS011;52740;40.620;-8.640;2022-11-06T01:32:49;37.13;;;19.25;;
65982;SDS011;52740;40.620;-8.640;2022-11-06T01:34:50;41.65;;;18.98;;
65982;SDS011;52740;40.620;-8.640;2022-11-06T01:36:51;34.80;;;16.80;;
65982;SDS011;52740;40.620;-8.640;2022-11-06T01:38:52;35.45;;;16.58;;
65982;SDS011;52740;40.620;-8.640;2022-11-06T01:40:56;38.22;;;16.40;;
65982;SDS011;52740;40.620;-8.640;2022-11-06T01:42:56;34.85;;;18.17;;
65982;SDS011;52740;40.620;-8.640;2022-11-06T01:45:19;38.03;;;16.38;;
65982;SDS011;52740;40.620;-8.640;2022-11-06T01:47:27;41.20;;;14.90;;
65982;SDS011;52740;40.620;-8.640;2022-11-06T01:49:30;27.15;;;16.08;;
65982;SDS011;52740;40.620;-8.640;2022-11-06T01:51:38;33.30;;;16.00;;
65982;SDS011;52740;40.620;-8.640;2022-11-06T01:53:41;35.95;;;16.65;;
65982;SDS011;52740;40.620;-8.640;2022-11-06T01:55:43;25.15;;;15.98;;
65982;SDS011;52740;40.620;-8.640;2022-11-06T01:57:46;39.50;;;16.50;;
65982;SDS011;52740;40.620;-8.640;2022-11-06T01:59:48;29.73;;;16.40;;
65982;SDS011;52740;40.620;-8.640;2022-11-06T02:01:51;22.73;;;15.25;;
65982;SDS011;52740;40.620;-8.640;2022-11-06T02:03:55;27.02;;;15.00;;
65982;SDS011;52740;40.620;-8.640;2022-11-06T02:06:01;28.95;;;16.38;;
65982;SDS011;52740;40.620;-8.640;2022-11-06T02:08:04;30.08;;;16.98;;
65982;SDS011;52740;40.620;-8.640;2022-11-06T02:10:06;28.95;;;17.85;;
65982;SDS011;52740;40.620;-8.640;2022-11-06T02:14:42;33.22;;;15.65;;
65982;SDS011;52740;40.620;-8.640;2022-11-06T02:29:02;22.17;;;11.95;;
65982;SDS011;52740;40.620;-8.640;2022-11-06T02:31:12;22.70;;;13.55;;
65982;SDS011;52740;40.620;-8.640;2022-11-06T02:33:18;28.20;;;13.20;;
65982;SDS011;52740;40.620;-8.640;2022-11-06T02:38:36;30.95;;;12.35;;
65982;SDS011;52740;40.620;-8.640;2022-11-06T02:40:42;25.42;;;13.60;;
65982;SDS011;52740;40.620;-8.640;2022-11-06T02:42:48;24.92;;;13.27;;
65982;SDS011;52740;40.620;-8.640;2022-11-06T02:44:52;37.72;;;12.73;;
65982;SDS011;52740;40.620;-8.640;2022-11-06T02:47:06;22.15;;;12.45;;
65982;SDS011;52740;40.620;-8.640;2022-11-06T02:49:13;27.77;;;13.00;;
65982;SDS011;52740;40.620;-8.640;2022-11-06T02:51:24;21.60;;;12.38;;
65982;SDS011;52740;40.620;-8.640;2022-11-06T02:53:30;23.63;;;12.52;;
65982;SDS011;52740;40.620;-8.640;2022-11-06T02:55:48;18.58;;;11.80;;
65982;SDS011;52740;40.620;-8.640;2022-11-06T02:57:53;20.13;;;12.02;;
65982;SDS011;52740;40.620;-8.640;2022-11-06T03:00:09;22.65;;;12.45;;
65982;SDS011;52740;40.620;-8.640;2022-11-06T03:02:15;25.17;;;12.30;;
65982;SDS011;52740;40.620;-8.640;2022-11-06T03:06:50;20.65;;;11.85;;
65982;SDS011;52740;40.620;-8.640;2022-11-06T03:09:18;25.27;;;12.32;;
65982;SDS011;52740;40.620;-8.640;2022-11-06T03:11:28;27.08;;;13.65;;
65982;SDS011;52740;40.620;-8.640;2022-11-06T03:22:40;20.92;;;13.00;;
65982;SDS011;52740;40.620;-8.640;2022-11-06T03:25:04;23.98;;;12.57;;
65982;SDS011;52740;40.620;-8.640;2022-11-06T03:27:37;23.73;;;12.48;;
65982;SDS011;52740;40.620;-8.640;2022-11-06T03:31:55;22.50;;;12.55;;
65982;SDS011;52740;40.620;-8.640;2022-11-06T03:34:02;21.60;;;12.60;;
65982;SDS011;52740;40.620;-8.640;2022-11-06T03:36:14;23.77;;;12.77;;
65982;SDS011;52740;40.620;-8.640;2022-11-06T03:38:22;19.67;;;10.95;;
65982;SDS011;52740;40.620;-8.640;2022-11-06T03:40:28;22.02;;;11.43;;
65982;SDS011;52740;40.620;-8.640;2022-11-06T03:42:33;23.38;;;11.00;;
65982;SDS011;52740;40.620;-8.640;2022-11-06T03:44:39;19.52;;;11.77;;
65982;SDS011;52740;40.620;-8.640;2022-11-06T03:46:45;17.92;;;11.57;;
65982;SDS011;52740;40.620;-8.640;2022-11-06T03:48:51;21.75;;;10.32;;
65982;SDS011;52740;40.620;-8.640;2022-11-06T03:53:20;20.75;;;10.85;;
65982;SDS011;52740;40.620;-8.640;2022-11-06T03:55:23;19.95;;;11.02;;
65982;SDS011;52740;40.620;-8.640;2022-11-06T03:57:40;24.02;;;12.57;;
65982;SDS011;52740;40.620;-8.640;2022-11-06T03:59:45;14.13;;;10.30;;
65982;SDS011;52740;40.620;-8.640;2022-11-06T04:01:52;23.30;;;9.95;;
65982;SDS011;52740;40.620;-8.640;2022-11-06T04:04:00;21.75;;;10.10;;
65982;SDS011;52740;40.620;-8.640;2022-11-06T04:06:08;16.05;;;10.52;;
65982;SDS011;52740;40.620;-8.640;2022-11-06T04:08:14;27.27;;;10.60;;
65982;SDS011;52740;40.620;-8.640;2022-11-06T04:10:37;24.35;;;12.63;;
65982;SDS011;52740;40.620;-8.640;2022-11-06T04:13:01;19.58;;;11.45;;
65982;SDS011;52740;40.620;-8.640;2022-11-06T04:15:21;20.45;;;10.77;;
65982;SDS011;52740;40.620;-8.640;2022-11-06T04:17:23;23.10;;;10.88;;
65982;SDS011;52740;40.620;-8.640;2022-11-06T04:19:27;18.10;;;11.43;;
65982;SDS011;52740;40.620;-8.640;2022-11-06T04:23:48;16.48;;;10.63;;
65982;SDS011;52740;40.620;-8.640;2022-11-06T04:26:29;18.00;;;10.10;;
65982;SDS011;52740;40.620;-8.640;2022-11-06T04:28:38;25.63;;;10.13;;
65982;SDS011;52740;40.620;-8.640;2022-11-06T04:31:10;15.15;;;10.30;;
65982;SDS011;52740;40.620;-8.640;2022-11-06T04:38:22;16.25;;;9.63;;
65982;SDS011;52740;40.620;-8.640;2022-11-06T04:40:29;17.88;;;10.00;;
65982;SDS011;52740;40.620;-8.640;2022-11-06T04:42:43;20.17;;;9.63;;
65982;SDS011;52740;40.620;-8.640;2022-11-06T04:44:46;19.95;;;9.15;;
65982;SDS011;52740;40.620;-8.640;2022-11-06T04:46:52;20.80;;;10.13;;
65982;SDS011;52740;40.620;-8.640;2022-11-06T04:49:08;11.80;;;8.52;;
65982;SDS011;52740;40.620;-8.640;2022-11-06T04:51:10;17.65;;;9.88;;
65982;SDS011;52740;40.620;-8.640;2022-11-06T04:53:12;15.00;;;9.93;;
65982;SDS011;52740;40.620;-8.640;2022-11-06T04:55:15;21.88;;;8.35;;
65982;SDS011;52740;40.620;-8.640;2022-11-06T04:57:16;24.77;;;9.27;;
65982;SDS011;52740;40.620;-8.640;2022-11-06T04:59:17;18.70;;;8.77;;
65982;SDS011;52740;40.620;-8.640;2022-11-06T05:01:18;12.60;;;8.45;;
65982;SDS011;52740;40.620;-8.640;2022-11-06T05:03:19;16.92;;;9.00;;
65982;SDS011;52740;40.620;-8.640;2022-11-06T05:05:19;17.30;;;9.35;;
65982;SDS011;52740;40.620;-8.640;2022-11-06T05:07:20;13.82;;;8.82;;
65982;SDS011;52740;40.620;-8.640;2022-11-06T05:09:21;16.60;;;10.07;;
65982;SDS011;52740;40.620;-8.640;2022-11-06T05:11:22;16.58;;;9.27;;
65982;SDS011;52740;40.620;-8.640;2022-11-06T05:13:23;12.50;;;8.25;;
65982;SDS011;52740;40.620;-8.640;2022-11-06T05:15:24;16.58;;;9.48;;
65982;SDS011;52740;40.620;-8.640;2022-11-06T05:17:25;11.57;;;8.57;;
65982;SDS011;52740;40.620;-8.640;2022-11-06T05:19:26;18.33;;;10.38;;
65982;SDS011;52740;40.620;-8.640;2022-11-06T05:21:26;18.17;;;8.80;;
65982;SDS011;52740;40.620;-8.640;2022-11-06T05:23:45;14.38;;;9.68;;
65982;SDS011;52740;40.620;-8.640;2022-11-06T05:25:46;12.55;;;9.73;;
65982;SDS011;52740;40.620;-8.640;2022-11-06T05:27:47;30.30;;;9.93;;
65982;SDS011;52740;40.620;-8.640;2022-11-06T05:29:47;16.15;;;9.63;;
65982;SDS011;52740;40.620;-8.640;2022-11-06T05:31:48;17.17;;;10.50;;
65982;SDS011;52740;40.620;-8.640;2022-11-06T05:33:49;17.88;;;9.70;;
65982;SDS011;52740;40.620;-8.640;2022-11-06T05:35:50;15.73;;;9.45;;
65982;SDS011;52740;40.620;-8.640;2022-11-06T05:37:57;18.48;;;9.73;;
65982;SDS011;52740;40.620;-8.640;2022-11-06T05:39:58;17.17;;;9.60;;
65982;SDS011;52740;40.620;-8.640;2022-11-06T05:41:59;20.23;;;10.23;;
65982;SDS011;52740;40.620;-8.640;2022-11-06T05:44:00;18.55;;;10.95;;
65982;SDS011;52740;40.620;-8.640;2022-11-06T05:46:00;20.35;;;9.20;;
65982;SDS011;52740;40.620;-8.640;2022-11-06T05:48:01;22.35;;;10.30;;
65982;SDS011;52740;40.620;-8.640;2022-11-06T05:50:02;18.05;;;10.80;;
65982;SDS011;52740;40.620;-8.640;2022-11-06T05:52:03;23.55;;;10.88;;
65982;SDS011;52740;40.620;-8.640;2022-11-06T05:54:03;19.83;;;10.60;;
65982;SDS011;52740;40.620;-8.640;2022-11-06T05:56:04;15.55;;;9.82;;
65982;SDS011;52740;40.620;-8.640;2022-11-06T05:58:05;18.48;;;10.50;;
65982;SDS011;52740;40.620;-8.640;2022-11-06T06:00:06;22.80;;;11.15;;
65982;SDS011;52740;40.620;-8.640;2022-11-06T06:02:12;21.02;;;11.57;;
65982;SDS011;52740;40.620;-8.640;2022-11-06T06:04:13;16.70;;;11.13;;
65982;SDS011;52740;40.620;-8.640;2022-11-06T06:06:14;19.45;;;10.35;;
65982;SDS011;52740;40.620;-8.640;2022-11-06T06:08:15;21.13;;;10.73;;
65982;SDS011;52740;40.620;-8.640;2022-11-06T06:10:15;22.75;;;13.27;;
65982;SDS011;52740;40.620;-8.640;2022-11-06T06:12:16;21.05;;;12.43;;
65982;SDS011;52740;40.620;-8.640;2022-11-06T06:14:17;18.42;;;11.25;;
65982;SDS011;52740;40.620;-8.640;2022-11-06T06:16:18;22.30;;;12.20;;
65982;SDS011;52740;40.620;-8.640;2022-11-06T06:18:19;22.65;;;12.25;;
65982;SDS011;52740;40.620;-8.640;2022-11-06T06:20:20;19.95;;;11.57;;
65982;SDS011;52740;40.620;-8.640;2022-11-06T06:22:20;26.02;;;12.25;;
65982;SDS011;52740;40.620;-8.640;2022-11-06T06:24:21;31.13;;;13.93;;
65982;SDS011;52740;40.620;-8.640;2022-11-06T06:26:22;28.13;;;12.27;;
65982;SDS011;52740;40.620;-8.640;2022-11-06T06:28:23;24.48;;;12.48;;
65982;SDS011;52740;40.620;-8.640;2022-11-06T06:30:23;19.75;;;12.13;;
65982;SDS011;52740;40.620;-8.640;2022-11-06T06:32:25;23.65;;;14.18;;
65982;SDS011;52740;40.620;-8.640;2022-11-06T06:34:25;24.65;;;12.23;;
65982;SDS011;52740;40.620;-8.640;2022-11-06T06:36:26;24.88;;;11.48;;
65982;SDS011;52740;40.620;-8.640;2022-11-06T06:38:27;21.83;;;13.45;;
65982;SDS011;52740;40.620;-8.640;2022-11-06T06:40:27;23.08;;;13.30;;
65982;SDS011;52740;40.620;-8.640;2022-11-06T06:42:29;32.10;;;12.50;;
65982;SDS011;52740;40.620;-8.640;2022-11-06T06:44:30;22.58;;;13.00;;
65982;SDS011;52740;40.620;-8.640;2022-11-06T06:46:31;17.92;;;10.98;;
65982;SDS011;52740;40.620;-8.640;2022-11-06T06:48:32;21.92;;;11.63;;
65982;SDS011;52740;40.620;-8.640;2022-11-06T06:50:33;17.02;;;11.02;;
65982;SDS011;52740;40.620;-8.640;2022-11-06T06:52:34;27.25;;;11.85;;
65982;SDS011;52740;40.620;-8.640;2022-11-06T06:54:34;20.80;;;10.02;;
65982;SDS011;52740;40.620;-8.640;2022-11-06T06:56:35;22.10;;;12.23;;
65982;SDS011;52740;40.620;-8.640;2022-11-06T06:58:36;21.30;;;11.52;;
65982;SDS011;52740;40.620;-8.640;2022-11-06T07:00:36;20.23;;;11.52;;
65982;SDS011;52740;40.620;-8.640;2022-11-06T07:02:37;20.50;;;11.25;;
65982;SDS011;52740;40.620;-8.640;2022-11-06T07:04:38;21.42;;;11.77;;
65982;SDS011;52740;40.620;-8.640;2022-11-06T07:06:38;28.92;;;15.38;;
65982;SDS011;52740;40.620;-8.640;2022-11-06T07:08:39;34.55;;;16.60;;
65982;SDS011;52740;40.620;-8.640;2022-11-06T07:10:40;26.48;;;13.45;;
65982;SDS011;52740;40.620;-8.640;2022-11-06T07:12:41;25.80;;;13.10;;
65982;SDS011;52740;40.620;-8.640;2022-11-06T07:14:42;37.50;;;13.82;;
65982;SDS011;52740;40.620;-8.640;2022-11-06T07:16:42;26.38;;;12.50;;
65982;SDS011;52740;40.620;-8.640;2022-11-06T07:18:43;24.00;;;14.25;;
65982;SDS011;52740;40.620;-8.640;2022-11-06T07:20:44;24.17;;;14.63;;
65982;SDS011;52740;40.620;-8.640;2022-11-06T07:22:45;26.05;;;13.80;;
65982;SDS011;52740;40.620;-8.640;2022-11-06T07:24:46;25.20;;;15.25;;
65982;SDS011;52740;40.620;-8.640;2022-11-06T07:26:46;23.58;;;13.57;;
65982;SDS011;52740;40.620;-8.640;2022-11-06T07:28:47;29.35;;;14.40;;
65982;SDS011;52740;40.620;-8.640;2022-11-06T07:30:48;23.92;;;15.63;;
65982;SDS011;52740;40.620;-8.640;2022-11-06T07:32:48;32.13;;;14.15;;
65982;SDS011;52740;40.620;-8.640;2022-11-06T07:34:49;32.95;;;16.20;;
65982;SDS011;52740;40.620;-8.640;2022-11-06T07:36:50;29.60;;;15.68;;
65982;SDS011;52740;40.620;-8.640;2022-11-06T07:38:50;27.58;;;15.38;;
65982;SDS011;52740;40.620;-8.640;2022-11-06T07:40:51;29.67;;;16.27;;
65982;SDS011;52740;40.620;-8.640;2022-11-06T07:42:52;29.63;;;14.73;;
65982;SDS011;52740;40.620;-8.640;2022-11-06T07:44:53;30.08;;;15.13;;
65982;SDS011;52740;40.620;-8.640;2022-11-06T07:46:54;24.88;;;15.27;;
65982;SDS011;52740;40.620;-8.640;2022-11-06T07:48:55;23.92;;;15.75;;
65982;SDS011;52740;40.620;-8.640;2022-11-06T07:50:56;26.15;;;15.75;;
65982;SDS011;52740;40.620;-8.640;2022-11-06T07:52:57;34.75;;;15.48;;
65982;SDS011;52740;40.620;-8.640;2022-11-06T07:55:01;30.10;;;15.80;;
65982;SDS011;52740;40.620;-8.640;2022-11-06T07:57:02;25.23;;;14.65;;
65982;SDS011;52740;40.620;-8.640;2022-11-06T07:59:03;34.83;;;17.50;;
65982;SDS011;52740;40.620;-8.640;2022-11-06T08:01:04;31.58;;;16.83;;
65982;SDS011;52740;40.620;-8.640;2022-11-06T08:03:05;25.83;;;15.50;;
65982;SDS011;52740;40.620;-8.640;2022-11-06T08:05:06;28.40;;;16.77;;
65982;SDS011;52740;40.620;-8.640;2022-11-06T08:07:07;30.90;;;15.18;;
65982;SDS011;52740;40.620;-8.640;2022-11-06T08:09:09;30.02;;;15.95;;
65982;SDS011;52740;40.620;-8.640;2022-11-06T08:11:10;27.67;;;16.67;;
65982;SDS011;52740;40.620;-8.640;2022-11-06T08:13:12;30.90;;;16.95;;
65982;SDS011;52740;40.620;-8.640;2022-11-06T08:15:15;35.67;;;16.25;;
65982;SDS011;52740;40.620;-8.640;2022-11-06T08:17:15;36.63;;;15.40;;
65982;SDS011;52740;40.620;-8.640;2022-11-06T08:19:19;27.27;;;15.23;;
65982;SDS011;52740;40.620;-8.640;2022-11-06T08:21:20;31.13;;;14.93;;
65982;SDS011;52740;40.620;-8.640;2022-11-06T08:23:23;26.58;;;15.98;;
65982;SDS011;52740;40.620;-8.640;2022-11-06T08:25:24;22.15;;;14.75;;
65982;SDS011;52740;40.620;-8.640;2022-11-06T08:27:26;29.60;;;15.40;;
65982;SDS011;52740;40.620;-8.640;2022-11-06T08:29:27;28.55;;;16.52;;
65982;SDS011;52740;40.620;-8.640;2022-11-06T08:31:28;32.70;;;18.25;;
65982;SDS011;52740;40.620;-8.640;2022-11-06T08:33:35;40.17;;;23.02;;
65982;SDS011;52740;40.620;-8.640;2022-11-06T08:35:37;36.53;;;20.95;;
65982;SDS011;52740;40.620;-8.640;2022-11-06T08:37:38;27.02;;;16.00;;
65982;SDS011;52740;40.620;-8.640;2022-11-06T08:39:38;24.05;;;14.40;;
65982;SDS011;52740;40.620;-8.640;2022-11-06T08:41:42;27.73;;;17.10;;
65982;SDS011;52740;40.620;-8.640;2022-11-06T08:43:49;28.27;;;14.63;;
65982;SDS011;52740;40.620;-8.640;2022-11-06T08:45:54;31.13;;;16.85;;
65982;SDS011;52740;40.620;-8.640;2022-11-06T08:48:03;41.17;;;20.83;;
65982;SDS011;52740;40.620;-8.640;2022-11-06T08:50:05;27.92;;;17.55;;
65982;SDS011;52740;40.620;-8.640;2022-11-06T08:52:06;34.40;;;20.20;;
65982;SDS011;52740;40.620;-8.640;2022-11-06T08:54:13;46.20;;;27.65;;
65982;SDS011;52740;40.620;-8.640;2022-11-06T08:56:19;24.13;;;14.90;;
65982;SDS011;52740;40.620;-8.640;2022-11-06T08:58:26;25.35;;;15.60;;
65982;SDS011;52740;40.620;-8.640;2022-11-06T09:00:27;23.35;;;15.40;;
65982;SDS011;52740;40.620;-8.640;2022-11-06T09:02:28;24.33;;;13.70;;
65982;SDS011;52740;40.620;-8.640;2022-11-06T09:04:29;19.10;;;12.68;;
65982;SDS011;52740;40.620;-8.640;2022-11-06T09:06:30;22.33;;;14.77;;
65982;SDS011;52740;40.620;-8.640;2022-11-06T09:08:30;17.77;;;12.18;;
65982;SDS011;52740;40.620;-8.640;2022-11-06T09:10:31;23.90;;;12.75;;
65982;SDS011;52740;40.620;-8.640;2022-11-06T09:12:32;20.92;;;12.48;;
65982;SDS011;52740;40.620;-8.640;2022-11-06T09:14:33;19.75;;;13.20;;
65982;SDS011;52740;40.620;-8.640;2022-11-06T09:16:34;22.40;;;13.32;;
65982;SDS011;52740;40.620;-8.640;2022-11-06T09:18:35;24.98;;;13.68;;
65982;SDS011;52740;40.620;-8.640;2022-11-06T09:20:36;25.40;;;14.63;;
65982;SDS011;52740;40.620;-8.640;2022-11-06T09:22:37;21.73;;;14.20;;
65982;SDS011;52740;40.620;-8.640;2022-11-06T09:24:38;25.42;;;13.25;;
65982;SDS011;52740;40.620;-8.640;2022-11-06T09:26:39;20.90;;;12.82;;
65982;SDS011;52740;40.620;-8.640;2022-11-06T09:28:39;19.65;;;12.70;;
65982;SDS011;52740;40.620;-8.640;2022-11-06T09:30:40;21.50;;;12.60;;
65982;SDS011;52740;40.620;-8.640;2022-11-06T09:32:48;21.63;;;13.05;;
65982;SDS011;52740;40.620;-8.640;2022-11-06T09:34:53;18.73;;;11.15;;
65982;SDS011;52740;40.620;-8.640;2022-11-06T09:36:53;22.90;;;12.60;;
65982;SDS011;52740;40.620;-8.640;2022-11-06T09:38:54;16.50;;;12.65;;
65982;SDS011;52740;40.620;-8.640;2022-11-06T09:40:56;23.02;;;12.73;;
65982;SDS011;52740;40.620;-8.640;2022-11-06T09:45:32;22.15;;;12.50;;
65982;SDS011;52740;40.620;-8.640;2022-11-06T09:47:38;24.90;;;13.07;;
65982;SDS011;52740;40.620;-8.640;2022-11-06T09:49:49;26.67;;;13.90;;
65982;SDS011;52740;40.620;-8.640;2022-11-06T09:51:58;20.63;;;12.85;;
65982;SDS011;52740;40.620;-8.640;2022-11-06T09:54:06;21.38;;;14.05;;
65982;SDS011;52740;40.620;-8.640;2022-11-06T09:56:15;28.08;;;14.52;;
65982;SDS011;52740;40.620;-8.640;2022-11-06T09:58:22;20.73;;;13.60;;
65982;SDS011;52740;40.620;-8.640;2022-11-06T10:00:29;19.55;;;13.32;;
65982;SDS011;52740;40.620;-8.640;2022-11-06T10:04:50;43.60;;;22.48;;
65982;SDS011;52740;40.620;-8.640;2022-11-06T10:07:21;117.93;;;53.80;;
65982;SDS011;52740;40.620;-8.640;2022-11-06T10:09:28;54.75;;;30.42;;
65982;SDS011;52740;40.620;-8.640;2022-11-06T10:11:34;54.95;;;29.98;;
65982;SDS011;52740;40.620;-8.640;2022-11-06T10:15:57;27.50;;;17.83;;
65982;SDS011;52740;40.620;-8.640;2022-11-06T10:20:28;25.38;;;16.48;;
65982;SDS011;52740;40.620;-8.640;2022-11-06T10:26:58;22.30;;;12.98;;
65982;SDS011;52740;40.620;-8.640;2022-11-06T10:33:57;19.77;;;13.65;;
65982;SDS011;52740;40.620;-8.640;2022-11-06T10:36:09;21.55;;;13.75;;
65982;SDS011;52740;40.620;-8.640;2022-11-06T10:38:37;20.38;;;14.32;;
65982;SDS011;52740;40.620;-8.640;2022-11-06T10:40:41;25.90;;;17.00;;
65982;SDS011;52740;40.620;-8.640;2022-11-06T10:42:45;28.00;;;17.73;;
65982;SDS011;52740;40.620;-8.640;2022-11-06T10:45:16;25.10;;;18.15;;
65982;SDS011;52740;40.620;-8.640;2022-11-06T10:47:21;36.28;;;25.08;;
65982;SDS011;52740;40.620;-8.640;2022-11-06T11:03:25;40.80;;;36.42;;
65982;SDS011;52740;40.620;-8.640;2022-11-06T11:05:45;43.88;;;25.15;;
65982;SDS011;52740;40.620;-8.640;2022-11-06T11:07:47;36.17;;;21.58;;
65982;SDS011;52740;40.620;-8.640;2022-11-06T11:09:49;45.75;;;25.60;;
65982;SDS011;52740;40.620;-8.640;2022-11-06T11:11:50;26.40;;;18.70;;
65982;SDS011;52740;40.620;-8.640;2022-11-06T11:16:00;29.10;;;17.88;;
65982;SDS011;52740;40.620;-8.640;2022-11-06T11:18:44;25.10;;;16.08;;
65982;SDS011;52740;40.620;-8.640;2022-11-06T11:20:30;21.42;;;14.98;;
65982;SDS011;52740;40.620;-8.640;2022-11-06T11:22:33;17.17;;;13.45;;
65982;SDS011;52740;40.620;-8.640;2022-11-06T11:24:34;23.23;;;15.13;;
65982;SDS011;52740;40.620;-8.640;2022-11-06T11:26:39;32.72;;;14.35;;
65982;SDS011;52740;40.620;-8.640;2022-11-06T11:28:48;22.88;;;14.13;;
65982;SDS011;52740;40.620;-8.640;2022-11-06T11:31:14;24.52;;;14.65;;
65982;SDS011;52740;40.620;-8.640;2022-11-06T11:33:17;22.45;;;14.93;;
65982;SDS011;52740;40.620;-8.640;2022-11-06T11:35:27;24.70;;;14.82;;
65982;SDS011;52740;40.620;-8.640;2022-11-06T11:37:30;23.02;;;15.55;;
65982;SDS011;52740;40.620;-8.640;2022-11-06T11:39:33;22.10;;;15.02;;
65982;SDS011;52740;40.620;-8.640;2022-11-06T11:41:37;24.40;;;19.70;;
65982;SDS011;52740;40.620;-8.640;2022-11-06T11:43:37;19.42;;;17.10;;
65982;SDS011;52740;40.620;-8.640;2022-11-06T11:45:39;24.55;;;18.83;;
65982;SDS011;52740;40.620;-8.640;2022-11-06T11:47:41;22.05;;;19.55;;
65982;SDS011;52740;40.620;-8.640;2022-11-06T11:49:47;20.33;;;18.05;;
65982;SDS011;52740;40.620;-8.640;2022-11-06T11:51:48;20.65;;;17.75;;
65982;SDS011;52740;40.620;-8.640;2022-11-06T11:53:49;22.17;;;17.88;;
65982;SDS011;52740;40.620;-8.640;2022-11-06T11:55:51;22.63;;;17.80;;
65982;SDS011;52740;40.620;-8.640;2022-11-06T11:57:57;20.73;;;18.10;;
65982;SDS011;52740;40.620;-8.640;2022-11-06T12:00:01;25.10;;;19.77;;
65982;SDS011;52740;40.620;-8.640;2022-11-06T12:02:18;19.85;;;17.88;;
65982;SDS011;52740;40.620;-8.640;2022-11-06T12:06:26;20.13;;;18.03;;
65982;SDS011;52740;40.620;-8.640;2022-11-06T12:08:26;19.35;;;17.48;;
65982;SDS011;52740;40.620;-8.640;2022-11-06T12:12:37;21.92;;;18.95;;
65982;SDS011;52740;40.620;-8.640;2022-11-06T12:14:38;17.88;;;16.08;;
65982;SDS011;52740;40.620;-8.640;2022-11-06T12:16:39;113.35;;;52.80;;
65982;SDS011;52740;40.620;-8.640;2022-11-06T12:18:41;20.30;;;17.45;;
65982;SDS011;52740;40.620;-8.640;2022-11-06T12:21:00;19.70;;;17.85;;
65982;SDS011;52740;40.620;-8.640;2022-11-06T12:23:09;19.38;;;17.38;;
65982;SDS011;52740;40.620;-8.640;2022-11-06T12:25:24;19.15;;;17.33;;
65982;SDS011;52740;40.620;-8.640;2022-11-06T12:27:37;18.05;;;16.08;;
65982;SDS011;52740;40.620;-8.640;2022-11-06T12:29:44;24.75;;;20.08;;
65982;SDS011;52740;40.620;-8.640;2022-11-06T12:32:11;37.10;;;34.00;;
65982;SDS011;52740;40.620;-8.640;2022-11-06T12:34:22;22.85;;;20.27;;
65982;SDS011;52740;40.620;-8.640;2022-11-06T12:36:33;51.47;;;39.10;;
65982;SDS011;52740;40.620;-8.640;2022-11-06T12:38:44;80.43;;;51.92;;
65982;SDS011;52740;40.620;-8.640;2022-11-06T12:40:53;78.65;;;47.03;;
65982;SDS011;52740;40.620;-8.640;2022-11-06T12:43:13;31.85;;;23.30;;
65982;SDS011;52740;40.620;-8.640;2022-11-06T12:45:42;35.35;;;23.65;;
65982;SDS011;52740;40.620;-8.640;2022-11-06T12:48:09;29.90;;;20.88;;
65982;SDS011;52740;40.620;-8.640;2022-11-06T12:52:52;32.97;;;20.80;;
65982;SDS011;52740;40.620;-8.640;2022-11-06T12:55:02;24.20;;;13.70;;
65982;SDS011;52740;40.620;-8.640;2022-11-06T12:59:23;47.70;;;28.75;;
65982;SDS011;52740;40.620;-8.640;2022-11-06T13:01:42;109.80;;;54.00;;
65982;SDS011;52740;40.620;-8.640;2022-11-06T13:11:12;31.83;;;18.35;;
65982;SDS011;52740;40.620;-8.640;2022-11-06T13:17:41;66.53;;;32.70;;
65982;SDS011;52740;40.620;-8.640;2022-11-06T13:22:40;53.67;;;30.58;;
65982;SDS011;52740;40.620;-8.640;2022-11-06T13:27:12;119.15;;;57.00;;
65982;SDS011;52740;40.620;-8.640;2022-11-06T13:29:21;36.30;;;24.98;;
65982;SDS011;52740;40.620;-8.640;2022-11-06T13:31:26;21.65;;;16.70;;
65982;SDS011;52740;40.620;-8.640;2022-11-06T13:33:54;20.38;;;17.15;;
65982;SDS011;52740;40.620;-8.640;2022-11-06T13:35:57;65.57;;;35.38;;
65982;SDS011;52740;40.620;-8.640;2022-11-06T13:37:58;27.33;;;21.00;;
65982;SDS011;52740;40.620;-8.640;2022-11-06T13:40:02;30.17;;;22.00;;
65982;SDS011;52740;40.620;-8.640;2022-11-06T13:44:18;84.53;;;47.87;;
65982;SDS011;52740;40.620;-8.640;2022-11-06T13:51:19;20.92;;;17.92;;